Time;durP1;ratioP1;P1;durP2;ratioP2;P2;SDS_P1;SDS_P2;PMS_P1;PMS_P2;Temp;Humidity;BMP_temperature;BMP_pressure;BME280_temperature;BME280_humidity;BME280_pressure;Samples;Min_cycle;Max_cycle;Signal;HPM_P1;HPM_P2
2021/04/03 00:04:29;;;;;;;6.73;5.90;;;10.20;57.20;;;;;;10522285;28;20251;-81
2021/04/03 00:09:31;;;;;;;6.30;5.30;;;10.20;58.10;;;;;;10539840;28;20196;-82
2021/04/03 00:14:34;;;;;;;6.57;5.20;;;10.20;57.20;;;;;;10532896;28;20278;-82
2021/04/03 00:19:36;;;;;;;6.40;5.80;;;10.10;56.70;;;;;;10518359;28;20222;-82
2021/04/03 00:24:37;;;;;;;6.33;5.83;;;10.00;56.20;;;;;;10555044;28;20294;-82
2021/04/03 00:29:40;;;;;;;7.07;6.33;;;10.00;56.60;;;;;;10555264;28;20203;-82
2021/04/03 00:34:41;;;;;;;8.57;5.57;;;10.00;56.80;;;;;;10537357;28;20283;-82
2021/04/03 00:39:43;;;;;;;8.60;6.67;;;10.00;56.10;;;;;;10555949;28;20263;-82
2021/04/03 00:44:47;;;;;;;8.03;6.30;;;9.90;57.50;;;;;;10539594;28;20651;-81
2021/04/03 00:49:49;;;;;;;7.13;6.40;;;9.90;56.70;;;;;;10556236;28;20219;-83
2021/04/03 00:54:51;;;;;;;7.00;6.30;;;9.90;56.80;;;;;;10557296;28;20187;-82
2021/04/03 00:59:54;;;;;;;7.80;6.77;;;9.80;57.10;;;;;;10534518;28;20215;-80
2021/04/03 01:04:56;;;;;;;8.13;6.40;;;9.80;57.10;;;;;;10525728;28;20591;-81
2021/04/03 01:10:00;;;;;;;7.27;6.40;;;9.80;56.20;;;;;;10537173;28;20212;-82
2021/04/03 01:15:12;;;;;;;6.63;5.73;;;9.80;56.20;;;;;;10556077;28;20195;-82
2021/04/03 01:20:35;;;;;;;9.70;6.10;;;9.80;56.10;;;;;;10538852;28;20281;-80
2021/04/03 01:25:52;;;;;;;7.20;6.40;;;9.80;55.80;;;;;;10526284;28;20327;-80
2021/04/03 01:30:56;;;;;;;6.77;5.33;;;9.80;56.30;;;;;;10509325;28;20215;-80
2021/04/03 01:36:03;;;;;;;7.57;5.73;;;9.80;55.70;;;;;;10525241;28;20541;-80
2021/04/03 01:41:06;;;;;;;7.77;5.33;;;9.80;56.00;;;;;;10527701;28;20220;-81
2021/04/03 01:46:22;;;;;;;6.70;5.30;;;9.80;55.90;;;;;;10545476;28;20208;-81
2021/04/03 01:51:29;;;;;;;6.33;5.67;;;9.80;55.70;;;;;;10522918;28;20212;-82
2021/04/03 01:56:31;;;;;;;6.10;5.50;;;9.80;55.40;;;;;;10527358;28;20202;-81
2021/04/03 02:01:38;;;;;;;6.60;5.90;;;9.70;55.60;;;;;;10546566;28;20700;-82
2021/04/03 02:06:42;;;;;;;6.77;6.10;;;9.70;55.40;;;;;;10527835;28;20246;-82
2021/04/03 02:11:57;;;;;;;6.40;5.70;;;9.60;55.80;;;;;;10545956;28;20210;-82
2021/04/03 02:17:22;;;;;;;9.60;6.40;;;9.60;55.90;;;;;;10510834;28;20196;-82
2021/04/03 02:22:27;;;;;;;6.47;5.87;;;9.60;56.20;;;;;;10545778;28;20212;-81
2021/04/03 02:27:38;;;;;;;7.80;7.00;;;9.60;56.60;;;;;;10526971;28;20214;-81
2021/04/03 02:32:44;;;;;;;7.73;6.93;;;9.60;56.60;;;;;;10525869;28;20215;-82
2021/04/03 02:37:47;;;;;;;7.40;5.73;;;9.60;57.10;;;;;;10505263;28;20204;-81
2021/04/03 02:42:55;;;;;;;7.03;6.17;;;9.70;56.70;;;;;;10571638;22;20332;-77
2021/04/03 02:48:02;;;;;;;6.23;5.23;;;9.70;57.10;;;;;;10544073;28;20195;-77
2021/04/03 02:53:09;;;;;;;6.83;5.80;;;9.80;56.50;;;;;;10561159;28;20276;-77
2021/04/03 02:58:16;;;;;;;7.60;5.50;;;9.70;56.70;;;;;;10560932;28;20264;-77
2021/04/03 03:03:20;;;;;;;5.17;4.73;;;9.70;56.20;;;;;;10578768;28;20219;-77
2021/04/03 03:08:23;;;;;;;8.43;5.30;;;9.70;56.10;;;;;;10559712;28;20215;-77
2021/04/03 03:13:26;;;;;;;5.67;5.13;;;9.70;55.70;;;;;;10564134;28;20270;-77
2021/04/03 03:18:30;;;;;;;5.37;4.67;;;9.70;55.80;;;;;;10560506;28;20196;-77
2021/04/03 03:23:32;;;;;;;5.17;4.67;;;9.60;55.80;;;;;;10559685;28;20590;-77
2021/04/03 03:28:37;;;;;;;5.20;4.70;;;9.60;55.90;;;;;;10558930;28;20191;-77
2021/04/03 03:33:41;;;;;;;6.53;4.50;;;9.50;55.90;;;;;;10577557;28;20199;-77
2021/04/03 03:38:43;;;;;;;6.17;4.67;;;9.50;55.90;;;;;;10577442;28;20222;-77
2021/04/03 03:43:48;;;;;;;5.10;4.60;;;9.40;55.90;;;;;;10576749;28;20215;-77
2021/04/03 03:48:51;;;;;;;5.03;4.60;;;9.40;56.00;;;;;;10558346;28;20260;-77
2021/04/03 03:53:53;;;;;;;6.57;5.00;;;9.50;56.20;;;;;;10558963;28;20203;-77
2021/04/03 03:58:56;;;;;;;6.97;4.80;;;9.50;56.00;;;;;;10563339;28;20195;-77
2021/04/03 04:03:59;;;;;;;5.20;4.70;;;9.40;55.80;;;;;;10560082;28;20306;-77
2021/04/03 04:09:03;;;;;;;4.03;3.73;;;9.30;55.70;;;;;;10577754;28;20198;-77
2021/04/03 04:14:10;;;;;;;4.70;4.27;;;9.20;56.00;;;;;;10576373;28;20219;-77
2021/04/03 04:19:21;;;;;;;7.80;4.60;;;9.10;56.50;;;;;;10558960;28;20191;-78
2021/04/03 04:24:25;;;;;;;5.63;4.57;;;9.10;56.90;;;;;;10569286;28;20311;-77
2021/04/03 04:29:28;;;;;;;5.70;4.90;;;9.00;56.90;;;;;;10576412;28;20184;-77
2021/04/03 04:34:33;;;;;;;6.10;5.03;;;9.00;56.80;;;;;;10540480;28;20238;-77
2021/04/03 04:39:38;;;;;;;6.30;4.97;;;9.00;57.50;;;;;;10558477;28;20219;-77
2021/04/03 04:44:44;;;;;;;5.10;4.50;;;9.00;57.90;;;;;;10557419;28;20226;-77
2021/04/03 04:49:47;;;;;;;10.13;4.80;;;9.00;57.50;;;;;;10575088;28;20183;-77
2021/04/03 04:54:49;;;;;;;9.03;5.00;;;9.10;57.90;;;;;;10579455;28;20183;-77
2021/04/03 04:59:55;;;;;;;4.93;4.40;;;9.10;57.50;;;;;;10565197;28;20194;-77
2021/04/03 05:05:00;;;;;;;5.13;4.60;;;9.10;57.20;;;;;;10565203;28;20227;-77
2021/04/03 05:10:02;;;;;;;7.20;5.43;;;9.10;57.30;;;;;;10582914;28;20723;-77
2021/04/03 05:15:05;;;;;;;6.27;4.60;;;9.10;57.80;;;;;;10584595;28;20234;-77
2021/04/03 05:20:09;;;;;;;5.60;5.10;;;9.10;57.50;;;;;;10586955;28;20191;-77
2021/04/03 05:25:12;;;;;;;7.87;4.80;;;9.10;57.20;;;;;;10564568;28;20219;-77
2021/04/03 05:30:15;;;;;;;4.63;4.00;;;9.20;57.20;;;;;;10564798;28;20348;-77
2021/04/03 05:35:17;;;;;;;10.83;4.90;;;9.20;57.20;;;;;;10582017;28;20195;-77
2021/04/03 05:40:19;;;;;;;5.70;4.37;;;9.20;57.30;;;;;;10581967;28;20211;-77
2021/04/03 05:45:24;;;;;;;5.23;4.73;;;9.20;57.60;;;;;;10581475;28;20267;-77
2021/04/03 05:50:28;;;;;;;5.03;4.40;;;9.20;57.50;;;;;;10581510;28;20290;-77
2021/04/03 05:55:30;;;;;;;5.10;4.20;;;9.30;56.70;;;;;;10581718;28;20202;-77
2021/04/03 06:00:31;;;;;;;8.50;4.30;;;9.40;57.30;;;;;;10585654;28;20569;-77
2021/04/03 06:05:34;;;;;;;4.83;3.87;;;9.40;57.20;;;;;;10580710;28;20691;-77
2021/04/03 06:10:36;;;;;;;6.10;4.33;;;9.60;57.20;;;;;;10581037;28;20264;-77
2021/04/03 06:15:37;;;;;;;4.03;3.73;;;9.70;57.00;;;;;;10581035;28;20179;-77
2021/04/03 06:20:42;;;;;;;5.97;4.47;;;9.60;56.90;;;;;;10581137;28;20215;-77
2021/04/03 06:25:54;;;;;;;4.93;4.53;;;9.50;57.30;;;;;;10587259;28;20217;-77
2021/04/03 06:30:58;;;;;;;6.50;4.20;;;9.40;57.30;;;;;;10578949;28;20663;-77
2021/04/03 06:36:08;;;;;;;3.93;3.63;;;9.40;57.60;;;;;;10560215;28;20183;-76
2021/04/03 06:41:18;;;;;;;5.60;4.40;;;9.20;57.00;;;;;;10578715;28;20248;-77
2021/04/03 06:46:24;;;;;;;6.80;4.33;;;9.10;57.70;;;;;;10577967;28;20728;-77
2021/04/03 06:51:27;;;;;;;7.00;4.67;;;9.10;58.50;;;;;;10579316;28;20218;-77
2021/04/03 06:56:31;;;;;;;4.73;4.23;;;9.30;57.70;;;;;;10578615;28;20242;-77
2021/04/03 07:01:49;;;;;;;4.50;4.10;;;9.50;58.10;;;;;;10578435;28;20207;-77
2021/04/03 07:06:52;;;;;;;4.40;3.90;;;9.60;57.80;;;;;;10558197;28;20267;-77
2021/04/03 07:11:55;;;;;;;6.07;3.90;;;9.80;57.80;;;;;;10576855;28;20768;-77
2021/04/03 07:16:57;;;;;;;4.00;3.60;;;10.00;56.20;;;;;;10556062;27;20202;-77
2021/04/03 07:22:00;;;;;;;4.50;3.93;;;10.20;56.60;;;;;;10609995;27;20314;-77
2021/04/03 07:27:03;;;;;;;5.37;4.40;;;10.40;55.50;;;;;;10577134;28;20311;-77
2021/04/03 07:32:06;;;;;;;4.37;3.83;;;10.60;55.50;;;;;;10590733;27;20269;-77
2021/04/03 07:37:10;;;;;;;4.80;4.03;;;10.60;54.10;;;;;;10592441;27;20618;-77
2021/04/03 07:42:33;;;;;;;8.93;3.27;;;10.50;54.90;;;;;;10599806;27;20226;-77
2021/04/03 07:47:47;;;;;;;4.57;3.67;;;10.60;55.00;;;;;;10564781;27;20234;-77
2021/04/03 07:52:54;;;;;;;4.63;3.47;;;10.60;54.90;;;;;;10552902;28;20223;-77
2021/04/03 07:58:23;;;;;;;4.03;3.73;;;10.70;55.30;;;;;;10559157;28;20272;-77
2021/04/03 08:03:26;;;;;;;6.47;4.40;;;11.00;55.10;;;;;;10518636;28;20267;-77
2021/04/03 08:08:30;;;;;;;4.33;3.30;;;11.40;53.90;;;;;;10534126;28;20240;-77
2021/04/03 08:13:32;;;;;;;5.87;3.97;;;11.50;52.80;;;;;;10537169;28;20265;-77
2021/04/03 08:18:35;;;;;;;3.30;3.00;;;11.60;53.20;;;;;;10539817;28;20696;-77
2021/04/03 08:23:40;;;;;;;3.50;3.20;;;11.60;54.00;;;;;;10534292;28;20692;-77
2021/04/03 08:28:42;;;;;;;4.57;2.87;;;11.70;52.40;;;;;;10536160;28;20195;-77
2021/04/03 08:33:44;;;;;;;4.37;3.00;;;11.80;53.00;;;;;;10575910;27;20701;-77
2021/04/03 08:38:47;;;;;;;4.47;3.20;;;11.80;52.50;;;;;;10586967;27;20634;-77
2021/04/03 08:43:50;;;;;;;4.03;2.87;;;11.70;52.10;;;;;;10548055;22;20256;-77
2021/04/03 08:48:57;;;;;;;3.70;2.70;;;11.70;51.50;;;;;;10472721;28;20239;-77
2021/04/03 08:54:00;;;;;;;7.30;3.47;;;11.30;52.50;;;;;;10454355;28;20565;-77
2021/04/03 08:59:06;;;;;;;3.23;3.00;;;11.30;52.50;;;;;;10444787;28;20201;-77
2021/04/03 09:04:08;;;;;;;4.77;2.90;;;11.30;51.80;;;;;;10443897;28;20677;-77
2021/04/03 09:09:12;;;;;;;4.07;3.27;;;11.20;51.70;;;;;;10463047;28;20277;-78
2021/04/03 09:14:22;;;;;;;3.43;2.97;;;11.40;52.30;;;;;;10444521;28;20240;-77
2021/04/03 09:19:28;;;;;;;3.40;2.73;;;11.50;51.80;;;;;;10462610;28;20221;-78
2021/04/03 09:24:35;;;;;;;3.53;2.80;;;11.60;51.50;;;;;;10461872;28;20225;-77
2021/04/03 09:29:38;;;;;;;11.03;4.00;;;11.60;51.30;;;;;;10461972;28;20558;-77
2021/04/03 09:34:40;;;;;;;3.50;2.93;;;11.70;50.80;;;;;;10459105;28;20205;-78
2021/04/03 09:39:48;;;;;;;3.93;3.03;;;11.80;50.90;;;;;;10426420;28;20296;-77
2021/04/03 09:44:51;;;;;;;4.17;2.80;;;11.80;51.20;;;;;;10460938;28;20271;-77
2021/04/03 09:49:54;;;;;;;3.27;3.00;;;12.10;50.10;;;;;;10461461;28;20243;-77
2021/04/03 09:54:56;;;;;;;6.33;3.10;;;12.40;49.90;;;;;;10460222;28;20266;-77
2021/04/03 09:59:58;;;;;;;3.10;2.80;;;12.80;49.50;;;;;;10477576;28;20208;-78
2021/04/03 10:04:59;;;;;;;3.10;2.80;;;13.20;48.70;;;;;;10480454;28;20241;-78
2021/04/03 10:10:02;;;;;;;4.53;2.90;;;13.50;47.70;;;;;;10477440;28;20220;-78
2021/04/03 10:15:05;;;;;;;4.47;3.80;;;13.50;48.00;;;;;;10471370;28;20240;-77
2021/04/03 10:20:08;;;;;;;3.60;3.00;;;13.40;47.80;;;;;;10450159;28;20215;-77
2021/04/03 10:25:12;;;;;;;6.63;2.83;;;13.50;47.90;;;;;;10475334;28;20687;-77
2021/04/03 10:30:14;;;;;;;2.80;2.60;;;13.70;47.60;;;;;;10500019;28;20185;-77
2021/04/03 10:35:16;;;;;;;3.40;3.10;;;13.80;47.40;;;;;;10469805;28;21005;-77
2021/04/03 10:40:19;;;;;;;4.07;3.30;;;13.70;47.40;;;;;;10485078;28;20200;-77
2021/04/03 10:45:21;;;;;;;3.60;3.10;;;13.60;48.00;;;;;;10473151;28;20217;-77
2021/04/03 10:50:22;;;;;;;5.73;3.20;;;13.40;46.90;;;;;;10456381;28;20609;-76
2021/04/03 10:55:25;;;;;;;5.43;2.90;;;13.00;47.60;;;;;;10493679;28;20235;-76
2021/04/03 11:00:27;;;;;;;4.03;3.10;;;12.60;47.30;;;;;;10432840;28;20251;-77
2021/04/03 11:05:29;;;;;;;3.33;2.87;;;12.50;47.70;;;;;;10457299;28;20212;-76
2021/04/03 11:10:32;;;;;;;3.30;2.90;;;12.30;47.50;;;;;;10427916;28;20682;-77
2021/04/03 11:15:34;;;;;;;7.17;3.53;;;12.20;48.80;;;;;;10470238;28;20192;-77
2021/04/03 11:20:35;;;;;;;3.80;2.90;;;12.60;49.20;;;;;;10495955;28;20289;-77
2021/04/03 11:25:38;;;;;;;2.87;2.67;;;12.90;48.20;;;;;;10467872;28;20299;-77
2021/04/03 11:30:39;;;;;;;6.30;3.50;;;13.00;47.80;;;;;;10471144;28;20221;-77
2021/04/03 11:35:41;;;;;;;3.60;3.13;;;13.10;47.50;;;;;;10461871;28;20203;-77
2021/04/03 11:40:43;;;;;;;4.03;3.23;;;13.20;47.30;;;;;;10505472;28;20307;-78
2021/04/03 11:45:45;;;;;;;6.00;3.20;;;13.20;46.40;;;;;;10464553;28;20220;-77
2021/04/03 11:50:47;;;;;;;5.93;2.60;;;13.30;46.60;;;;;;10458797;28;20221;-78
2021/04/03 11:55:49;;;;;;;2.90;2.57;;;13.30;45.80;;;;;;10456443;28;20197;-78
2021/04/03 12:00:51;;;;;;;4.00;3.10;;;13.30;45.90;;;;;;10439434;28;20818;-78
2021/04/03 12:05:52;;;;;;;4.13;2.80;;;13.30;47.00;;;;;;10459016;28;20303;-78
2021/04/03 12:10:55;;;;;;;3.63;2.97;;;13.10;47.00;;;;;;10455912;28;20205;-77
2021/04/03 12:15:57;;;;;;;3.70;3.27;;;12.90;47.40;;;;;;10455172;28;20221;-77
2021/04/03 12:20:58;;;;;;;4.30;3.00;;;12.70;46.90;;;;;;10491273;28;20722;-77
2021/04/03 12:26:01;;;;;;;2.87;2.43;;;12.70;46.70;;;;;;10476135;28;20220;-77
2021/04/03 12:31:03;;;;;;;2.70;2.50;;;13.00;46.50;;;;;;10431776;28;20221;-78
2021/04/03 12:36:08;;;;;;;6.90;2.87;;;13.30;46.00;;;;;;10466637;28;20280;-78
2021/04/03 12:41:10;;;;;;;3.43;2.50;;;13.30;46.40;;;;;;10455640;28;20579;-78
2021/04/03 12:46:12;;;;;;;2.57;2.37;;;13.30;46.00;;;;;;10456787;28;20236;-78
2021/04/03 12:51:14;;;;;;;3.23;2.90;;;13.20;45.10;;;;;;10441295;28;20582;-78
2021/04/03 12:56:16;;;;;;;3.97;2.37;;;12.90;46.00;;;;;;10457840;28;20219;-78
2021/04/03 13:01:18;;;;;;;2.80;2.57;;;12.90;45.70;;;;;;10457113;28;20295;-78
2021/04/03 13:06:20;;;;;;;5.53;2.10;;;12.90;46.00;;;;;;10457691;28;20217;-78
2021/04/03 13:11:22;;;;;;;3.03;2.73;;;13.20;45.10;;;;;;10442665;28;20215;-77
2021/04/03 13:16:24;;;;;;;2.50;2.30;;;13.40;43.80;;;;;;10503494;28;20201;-78
2021/04/03 13:21:26;;;;;;;2.03;1.90;;;13.60;43.60;;;;;;10488605;28;20209;-78
2021/04/03 13:26:28;;;;;;;2.50;1.97;;;13.70;42.40;;;;;;10464343;28;20291;-78
2021/04/03 13:31:30;;;;;;;3.20;2.60;;;13.70;42.10;;;;;;10465624;28;20209;-78
2021/04/03 13:36:32;;;;;;;2.53;2.33;;;13.70;42.80;;;;;;10483127;28;20664;-78
2021/04/03 13:41:34;;;;;;;3.90;2.50;;;13.70;43.10;;;;;;10482235;28;20661;-78
2021/04/03 13:46:36;;;;;;;2.50;2.30;;;13.70;42.80;;;;;;10460206;28;20723;-78
2021/04/03 13:51:37;;;;;;;1.60;1.50;;;13.70;42.60;;;;;;10465033;28;20224;-78
2021/04/03 13:56:40;;;;;;;3.83;2.70;;;13.70;41.50;;;;;;10449950;28;20667;-78
2021/04/03 14:01:41;;;;;;;2.13;1.93;;;13.70;41.40;;;;;;10463285;28;20268;-79
2021/04/03 14:06:43;;;;;;;4.33;2.20;;;13.70;41.50;;;;;;10464064;28;20217;-78
2021/04/03 14:11:45;;;;;;;2.10;1.90;;;13.70;42.10;;;;;;10431475;28;20221;-78
2021/04/03 14:16:47;;;;;;;5.80;2.70;;;13.70;40.50;;;;;;10447536;28;20653;-78
2021/04/03 14:21:49;;;;;;;3.53;2.53;;;13.70;41.00;;;;;;10446365;28;21268;-78
2021/04/03 14:26:51;;;;;;;2.87;2.67;;;13.80;40.90;;;;;;10445459;28;20380;-78
2021/04/03 14:31:53;;;;;;;3.40;2.17;;;13.70;41.30;;;;;;10433923;28;20213;-78
2021/04/03 14:36:54;;;;;;;2.40;2.20;;;13.70;42.70;;;;;;10447612;28;20232;-78
2021/04/03 14:41:57;;;;;;;2.30;2.10;;;13.70;42.40;;;;;;10487583;22;20226;-81
2021/04/03 14:46:59;;;;;;;2.13;2.00;;;13.80;42.90;;;;;;10541500;28;20678;-81
2021/04/03 14:52:00;;;;;;;2.37;2.23;;;13.80;42.40;;;;;;10552869;28;20218;-81
2021/04/03 14:57:03;;;;;;;2.30;1.97;;;13.70;41.90;;;;;;10574823;28;20184;-81
2021/04/03 15:02:05;;;;;;;2.43;2.23;;;13.50;42.60;;;;;;10544146;28;20211;-81
2021/04/03 15:07:07;;;;;;;4.13;1.97;;;13.40;41.50;;;;;;10554019;28;20219;-81
2021/04/03 15:12:11;;;;;;;2.80;2.23;;;13.40;41.70;;;;;;10555638;28;20215;-80
2021/04/03 15:17:12;;;;;;;2.50;2.23;;;13.40;41.80;;;;;;10567513;28;20199;-81
2021/04/03 15:22:15;;;;;;;2.57;2.37;;;13.50;41.30;;;;;;10558640;28;20299;-82
2021/04/03 15:27:17;;;;;;;2.30;1.93;;;13.70;41.90;;;;;;10551868;28;20215;-80
2021/04/03 15:32:19;;;;;;;2.30;2.00;;;13.80;41.70;;;;;;10567064;28;20706;-80
2021/04/03 15:37:21;;;;;;;2.53;2.33;;;13.70;40.50;;;;;;10543253;28;20207;-80
2021/04/03 15:47:51;;;;;;;3.20;2.40;;;13.40;41.20;;;;;;10543450;28;20247;-81
2021/04/03 15:52:53;;;;;;;2.10;1.90;;;13.30;42.20;;;;;;10525602;28;20294;-82
2021/04/03 15:57:56;;;;;;;2.00;1.77;;;13.30;42.40;;;;;;10542744;28;20194;-82
2021/04/03 16:02:57;;;;;;;3.90;2.50;;;13.30;42.80;;;;;;10523635;28;20578;-82
2021/04/03 16:07:59;;;;;;;2.47;2.23;;;13.40;42.00;;;;;;10541852;28;20693;-82
2021/04/03 16:13:02;;;;;;;2.53;2.13;;;13.40;42.80;;;;;;10541463;28;20215;-81
2021/04/03 16:18:09;;;;;;;2.47;2.27;;;13.40;42.10;;;;;;10504000;28;20222;-80
2021/04/03 16:23:12;;;;;;;4.07;2.27;;;13.40;42.00;;;;;;10521084;28;20288;-79
2021/04/03 16:28:14;;;;;;;2.53;2.33;;;13.40;41.80;;;;;;10544506;28;20198;-81
2021/04/03 16:33:19;;;;;;;2.30;1.90;;;13.30;40.90;;;;;;10544064;28;20212;-80
2021/04/03 16:38:20;;;;;;;3.30;2.00;;;13.20;41.90;;;;;;10521886;28;20209;-82
2021/04/03 16:43:23;;;;;;;2.60;2.23;;;13.10;42.00;;;;;;10521410;28;20226;-81
2021/04/03 16:48:25;;;;;;;3.57;2.30;;;13.10;42.40;;;;;;10506047;28;20256;-78
2021/04/03 16:53:27;;;;;;;2.67;1.77;;;13.10;42.50;;;;;;10528142;28;20220;-80
2021/04/03 16:58:29;;;;;;;1.80;1.70;;;13.00;41.30;;;;;;10546293;28;20200;-80
2021/04/03 17:03:31;;;;;;;2.83;2.27;;;12.90;42.80;;;;;;10531735;28;20302;-80
2021/04/03 17:08:33;;;;;;;3.00;2.77;;;12.80;42.90;;;;;;10527190;28;20219;-80
2021/04/03 17:13:35;;;;;;;2.33;2.13;;;12.80;42.10;;;;;;10526488;28;20204;-80
2021/04/03 17:18:37;;;;;;;2.27;2.10;;;12.70;41.90;;;;;;10550887;28;20199;-80
2021/04/03 17:23:39;;;;;;;3.10;2.60;;;12.40;42.10;;;;;;10529516;28;20247;-78
2021/04/03 17:28:41;;;;;;;4.37;3.70;;;12.30;43.30;;;;;;10526269;28;20237;-78
2021/04/03 17:33:43;;;;;;;4.90;3.23;;;12.30;43.50;;;;;;10543060;28;20602;-78
2021/04/03 17:38:45;;;;;;;3.20;2.60;;;12.30;42.90;;;;;;10551001;28;20192;-78
2021/04/03 17:43:50;;;;;;;3.47;2.90;;;12.20;43.60;;;;;;10525497;28;20218;-78
2021/04/03 17:48:51;;;;;;;4.30;2.77;;;12.20;44.20;;;;;;10524748;28;20202;-78
2021/04/03 17:53:53;;;;;;;3.00;2.73;;;12.30;44.50;;;;;;10523736;28;20304;-79
2021/04/03 17:58:56;;;;;;;5.63;4.40;;;12.30;44.90;;;;;;10542065;28;20226;-79
2021/04/03 18:03:57;;;;;;;3.27;2.97;;;12.30;44.40;;;;;;10527053;28;20220;-78
2021/04/03 18:08:59;;;;;;;3.07;2.70;;;12.30;44.90;;;;;;10525741;28;20326;-78
2021/04/03 18:14:02;;;;;;;7.30;3.90;;;12.30;44.00;;;;;;10543157;28;20212;-79
2021/04/03 18:19:04;;;;;;;3.80;3.50;;;12.30;44.20;;;;;;10524135;28;20729;-80
2021/04/03 18:24:08;;;;;;;4.93;3.90;;;12.20;45.20;;;;;;10508099;28;20935;-79
2021/04/03 18:29:12;;;;;;;3.77;3.47;;;12.10;45.60;;;;;;10543111;28;20176;-80
2021/04/03 18:34:13;;;;;;;3.90;3.50;;;12.00;45.80;;;;;;10551300;28;20206;-77
2021/04/03 18:39:15;;;;;;;3.60;3.20;;;11.90;46.20;;;;;;10529229;28;20550;-79
2021/04/03 18:44:18;;;;;;;5.30;4.80;;;11.90;45.60;;;;;;10529507;28;20686;-80
2021/04/03 18:49:20;;;;;;;3.57;3.03;;;11.80;45.90;;;;;;10504454;28;20199;-78
2021/04/03 18:54:22;;;;;;;3.17;2.90;;;11.70;46.50;;;;;;10522041;28;20625;-78
2021/04/03 18:59:24;;;;;;;3.30;2.47;;;11.70;46.80;;;;;;10538169;28;20196;-78
2021/04/03 19:04:26;;;;;;;3.40;3.10;;;11.60;47.20;;;;;;10538761;28;20211;-78
2021/04/03 19:09:28;;;;;;;2.77;2.50;;;11.50;46.90;;;;;;10538303;28;20200;-78
2021/04/03 19:14:31;;;;;;;5.30;3.03;;;11.50;47.10;;;;;;10504200;28;20245;-79
2021/04/03 19:19:32;;;;;;;3.43;3.03;;;11.40;47.00;;;;;;10541729;28;20655;-79
2021/04/03 19:24:34;;;;;;;3.33;2.87;;;11.30;47.70;;;;;;10529862;28;20243;-80
2021/04/03 19:29:37;;;;;;;4.30;3.63;;;11.20;47.90;;;;;;10531575;28;20724;-79
2021/04/03 19:34:38;;;;;;;6.37;3.90;;;11.20;48.00;;;;;;10551998;28;20299;-79
2021/04/03 19:39:42;;;;;;;5.53;4.10;;;11.20;48.30;;;;;;10534855;28;20373;-79
2021/04/03 19:44:46;;;;;;;4.60;3.20;;;11.10;48.20;;;;;;10558416;28;20224;-79
2021/04/03 19:49:48;;;;;;;3.63;3.07;;;11.10;48.50;;;;;;10521266;28;20296;-79
2021/04/03 19:54:49;;;;;;;3.30;3.00;;;11.00;48.30;;;;;;10536275;28;20713;-79
2021/04/03 19:59:52;;;;;;;4.47;3.40;;;11.00;48.60;;;;;;10533731;28;20271;-79
2021/04/03 20:04:54;;;;;;;4.87;3.40;;;11.00;48.10;;;;;;10504714;28;20227;-79
2021/04/03 20:09:55;;;;;;;5.77;3.90;;;11.00;48.70;;;;;;10537542;28;20184;-80
2021/04/03 20:14:59;;;;;;;4.83;3.60;;;10.90;48.50;;;;;;10517651;28;20796;-76
2021/04/03 20:20:01;;;;;;;5.33;3.50;;;10.80;49.20;;;;;;10534877;28;20652;-77
2021/04/03 20:25:03;;;;;;;4.50;3.90;;;10.70;49.60;;;;;;10535888;28;20223;-77
2021/04/03 20:30:19;;;;;;;3.80;3.50;;;10.60;49.90;;;;;;10507664;28;20199;-77
2021/04/03 20:35:24;;;;;;;4.53;3.87;;;10.50;50.30;;;;;;10523865;28;20211;-77
2021/04/03 20:40:26;;;;;;;5.03;3.33;;;10.40;50.40;;;;;;10524176;28;20287;-77
2021/04/03 20:45:29;;;;;;;8.30;5.77;;;10.30;50.80;;;;;;10474629;22;696784;-77
2021/04/03 20:50:30;;;;;;;7.07;5.50;;;10.20;50.20;;;;;;10501670;28;20262;-78
2021/04/03 20:55:33;;;;;;;4.40;4.00;;;10.00;50.40;;;;;;10501181;28;20695;-77
2021/04/03 21:00:38;;;;;;;4.37;3.70;;;9.80;52.00;;;;;;10499179;28;20265;-79
2021/04/03 21:05:40;;;;;;;5.30;4.00;;;9.70;52.50;;;;;;10500409;28;20223;-78
2021/04/03 21:10:41;;;;;;;4.57;4.10;;;9.60;52.40;;;;;;10499450;28;20200;-78
2021/04/03 21:15:44;;;;;;;3.77;3.40;;;9.40;52.90;;;;;;10500341;28;20211;-77
2021/04/03 21:20:45;;;;;;;5.93;3.60;;;9.30;53.20;;;;;;10499149;28;20197;-78
2021/04/03 21:25:47;;;;;;;7.37;3.97;;;9.20;53.10;;;;;;10499918;28;20216;-79
2021/04/03 21:30:50;;;;;;;4.37;3.63;;;9.10;53.70;;;;;;10500151;28;20695;-77
2021/04/03 21:35:51;;;;;;;4.57;3.93;;;9.00;53.90;;;;;;10497951;28;20657;-77
2021/04/03 21:40:53;;;;;;;4.50;4.00;;;9.00;54.40;;;;;;10499755;28;20216;-77
2021/04/03 21:45:55;;;;;;;6.17;4.17;;;8.90;54.60;;;;;;10481053;28;20220;-77
2021/04/03 21:50:57;;;;;;;7.70;4.33;;;8.90;54.30;;;;;;10499664;28;20195;-78
2021/04/03 21:55:59;;;;;;;5.67;4.23;;;8.80;54.90;;;;;;10497715;28;20196;-77
2021/04/03 22:01:01;;;;;;;8.00;4.10;;;8.70;55.00;;;;;;10498239;28;20612;-78
2021/04/03 22:06:03;;;;;;;6.40;4.60;;;8.70;54.90;;;;;;10497479;28;20699;-78
2021/04/03 22:11:07;;;;;;;4.53;4.10;;;8.60;55.80;;;;;;10499112;28;20204;-78
2021/04/03 22:16:10;;;;;;;7.43;5.10;;;8.60;55.10;;;;;;10538583;28;20257;-77
2021/04/03 22:21:12;;;;;;;9.53;5.37;;;8.60;55.30;;;;;;10540081;28;20730;-78
2021/04/03 22:26:14;;;;;;;5.60;4.50;;;8.50;55.40;;;;;;10525906;28;20331;-77
2021/04/03 22:31:17;;;;;;;5.47;4.90;;;8.40;55.40;;;;;;10472446;28;20212;-75
2021/04/03 22:36:18;;;;;;;6.40;4.80;;;8.30;55.80;;;;;;10469984;28;20247;-75
2021/04/03 22:41:20;;;;;;;5.47;3.47;;;8.20;55.90;;;;;;10470901;28;20273;-76
2021/04/03 22:46:24;;;;;;;8.40;3.57;;;8.10;55.80;;;;;;10483648;28;20304;-76
2021/04/03 22:51:26;;;;;;;4.27;3.70;;;8.10;55.60;;;;;;10490216;28;20258;-76
2021/04/03 22:56:27;;;;;;;4.37;3.50;;;8.00;55.80;;;;;;10481507;28;20197;-77
2021/04/03 23:01:30;;;;;;;5.23;3.77;;;7.90;55.90;;;;;;10468971;28;20213;-75
2021/04/03 23:06:32;;;;;;;5.40;3.70;;;7.90;56.20;;;;;;10465942;28;20205;-75
2021/04/03 23:11:33;;;;;;;5.20;3.47;;;7.80;56.30;;;;;;10474824;28;20212;-75
2021/04/03 23:16:36;;;;;;;6.17;4.23;;;7.80;56.30;;;;;;10472744;28;20231;-75
2021/04/03 23:21:37;;;;;;;11.83;5.07;;;7.70;56.60;;;;;;10473029;28;20211;-75
2021/04/03 23:26:39;;;;;;;5.30;4.30;;;7.70;57.10;;;;;;10466469;28;20220;-76
2021/04/03 23:31:41;;;;;;;6.40;4.87;;;7.70;57.30;;;;;;10454032;28;20591;-75
2021/04/03 23:36:43;;;;;;;7.77;5.90;;;7.70;57.50;;;;;;10450002;28;20617;-75
2021/04/03 23:41:47;;;;;;;5.43;4.93;;;7.60;58.10;;;;;;10470472;28;20228;-77
2021/04/03 23:46:50;;;;;;;7.73;5.87;;;7.60;57.70;;;;;;10467219;28;20297;-75
2021/04/03 23:51:51;;;;;;;5.53;4.33;;;7.50;58.00;;;;;;10462334;28;20245;-75
2021/04/03 23:56:53;;;;;;;7.87;5.00;;;7.40;58.90;;;;;;10453019;28;20263;-75
